sensor_id;sensor_type;location;lat;lon;timestamp;pressure;altitude;pressure_sealevel;temperature;humidity
56950;BME280;74437;50.080;19.924;2024-02-14T00:01:08;99558.25;;;3.13;74.97
56950;BME280;74437;50.080;19.924;2024-02-14T00:03:36;99555.50;;;3.06;75.04
56950;BME280;74437;50.080;19.924;2024-02-14T00:06:04;99551.97;;;3.06;74.55
56950;BME280;74437;50.080;19.924;2024-02-14T00:08:29;99553.78;;;2.98;74.37
56950;BME280;74437;50.080;19.924;2024-02-14T00:10:55;99556.81;;;2.95;74.85
56950;BME280;74437;50.080;19.924;2024-02-14T00:13:20;99560.53;;;2.94;75.68
56950;BME280;74437;50.080;19.924;2024-02-14T00:15:46;99567.72;;;2.94;75.79
56950;BME280;74437;50.080;19.924;2024-02-14T00:18:12;99561.25;;;2.88;75.79
56950;BME280;74437;50.080;19.924;2024-02-14T00:20:37;99556.06;;;2.87;75.86
56950;BME280;74437;50.080;19.924;2024-02-14T00:23:04;99570.66;;;2.99;76.43
56950;BME280;74437;50.080;19.924;2024-02-14T00:25:29;99577.88;;;2.98;75.87
56950;BME280;74437;50.080;19.924;2024-02-14T00:27:55;99558.13;;;2.85;76.31
56950;BME280;74437;50.080;19.924;2024-02-14T00:30:20;99581.38;;;2.99;76.55
56950;BME280;74437;50.080;19.924;2024-02-14T00:32:48;99586.94;;;2.97;75.75
56950;BME280;74437;50.080;19.924;2024-02-14T00:35:13;99550.72;;;2.72;76.52
56950;BME280;74437;50.080;19.924;2024-02-14T00:37:39;99586.47;;;2.94;76.79
56950;BME280;74437;50.080;19.924;2024-02-14T00:40:05;99580.94;;;2.95;76.81
56950;BME280;74437;50.080;19.924;2024-02-14T00:42:31;99530.41;;;2.62;77.11
56950;BME280;74437;50.080;19.924;2024-02-14T00:44:56;99573.56;;;2.82;76.27
56950;BME280;74437;50.080;19.924;2024-02-14T00:47:21;99588.03;;;2.88;76.70
56950;BME280;74437;50.080;19.924;2024-02-14T00:49:47;99589.13;;;2.94;77.02
56950;BME280;74437;50.080;19.924;2024-02-14T00:52:12;99543.16;;;2.60;77.54
56950;BME280;74437;50.080;19.924;2024-02-14T00:54:38;99597.38;;;2.92;77.61
56950;BME280;74437;50.080;19.924;2024-02-14T00:57:03;99588.50;;;2.92;77.90
56950;BME280;74437;50.080;19.924;2024-02-14T00:59:29;99585.66;;;2.93;77.84
56950;BME280;74437;50.080;19.924;2024-02-14T01:01:54;99591.00;;;2.93;77.35
56950;BME280;74437;50.080;19.924;2024-02-14T01:04:19;99594.69;;;2.92;77.58
56950;BME280;74437;50.080;19.924;2024-02-14T01:06:44;99591.91;;;2.86;77.17
56950;BME280;74437;50.080;19.924;2024-02-14T01:09:10;99581.31;;;2.77;78.18
56950;BME280;74437;50.080;19.924;2024-02-14T01:11:35;99597.09;;;2.87;77.75
56950;BME280;74437;50.080;19.924;2024-02-14T01:14:03;99597.09;;;2.87;77.94
56950;BME280;74437;50.080;19.924;2024-02-14T01:16:29;99599.78;;;2.87;77.82
56950;BME280;74437;50.080;19.924;2024-02-14T01:18:54;99581.47;;;2.76;78.25
56950;BME280;74437;50.080;19.924;2024-02-14T01:21:20;99585.66;;;2.78;78.01
56950;BME280;74437;50.080;19.924;2024-02-14T01:23:45;99514.97;;;2.34;78.14
56950;BME280;74437;50.080;19.924;2024-02-14T01:26:10;99602.63;;;2.86;77.85
56950;BME280;74437;50.080;19.924;2024-02-14T01:28:36;99598.09;;;2.86;78.51
56950;BME280;74437;50.080;19.924;2024-02-14T01:31:01;99593.97;;;2.83;78.13
56950;BME280;74437;50.080;19.924;2024-02-14T01:33:26;99595.78;;;2.83;78.44
56950;BME280;74437;50.080;19.924;2024-02-14T01:35:52;99599.50;;;2.82;78.53
56950;BME280;74437;50.080;19.924;2024-02-14T01:38:18;99601.50;;;2.80;78.18
56950;BME280;74437;50.080;19.924;2024-02-14T01:40:43;99591.53;;;2.74;78.68
56950;BME280;74437;50.080;19.924;2024-02-14T01:43:10;99603.53;;;2.78;79.12
56950;BME280;74437;50.080;19.924;2024-02-14T01:45:35;99477.28;;;2.06;79.00
56950;BME280;74437;50.080;19.924;2024-02-14T01:48:01;99597.53;;;2.76;79.37
56950;BME280;74437;50.080;19.924;2024-02-14T01:50:27;99600.22;;;2.76;79.32
56950;BME280;74437;50.080;19.924;2024-02-14T01:52:58;99577.84;;;2.68;79.06
56950;BME280;74437;50.080;19.924;2024-02-14T01:55:25;99577.59;;;2.63;78.99
56950;BME280;74437;50.080;19.924;2024-02-14T01:57:52;99587.38;;;2.71;79.49
56950;BME280;74437;50.080;19.924;2024-02-14T02:00:18;99595.22;;;2.73;79.11
56950;BME280;74437;50.080;19.924;2024-02-14T02:02:44;99592.75;;;2.71;78.81
56950;BME280;74437;50.080;19.924;2024-02-14T02:05:11;99595.44;;;2.71;78.76
56950;BME280;74437;50.080;19.924;2024-02-14T02:07:36;99571.75;;;2.60;79.06
56950;BME280;74437;50.080;19.924;2024-02-14T02:10:05;99592.25;;;2.67;79.81
56950;BME280;74437;50.080;19.924;2024-02-14T02:12:31;99588.78;;;2.67;79.57
56950;BME280;74437;50.080;19.924;2024-02-14T02:14:57;99595.13;;;2.66;80.00
56950;BME280;74437;50.080;19.924;2024-02-14T02:17:23;99582.66;;;2.58;79.70
56950;BME280;74437;50.080;19.924;2024-02-14T02:19:49;99591.16;;;2.62;79.84
56950;BME280;74437;50.080;19.924;2024-02-14T02:22:14;99589.69;;;2.59;80.25
56950;BME280;74437;50.080;19.924;2024-02-14T02:24:40;99589.69;;;2.59;80.16
56950;BME280;74437;50.080;19.924;2024-02-14T02:27:05;99592.53;;;2.58;79.93
56950;BME280;74437;50.080;19.924;2024-02-14T02:29:31;99587.38;;;2.56;80.05
56950;BME280;74437;50.080;19.924;2024-02-14T02:31:57;99580.44;;;2.47;79.40
56950;BME280;74437;50.080;19.924;2024-02-14T02:34:23;99552.16;;;2.29;80.35
56950;BME280;74437;50.080;19.924;2024-02-14T02:36:48;99545.22;;;2.20;79.97
56950;BME280;74437;50.080;19.924;2024-02-14T02:39:15;99567.38;;;2.29;80.52
56950;BME280;74437;50.080;19.924;2024-02-14T02:41:41;99582.53;;;2.36;80.47
56950;BME280;74437;50.080;19.924;2024-02-14T02:44:06;99589.09;;;2.34;80.03
56950;BME280;74437;50.080;19.924;2024-02-14T02:46:32;99591.13;;;2.32;79.95
56950;BME280;74437;50.080;19.924;2024-02-14T02:48:57;99589.88;;;2.19;80.35
56950;BME280;74437;50.080;19.924;2024-02-14T02:51:24;99549.97;;;1.71;80.86
56950;BME280;74437;50.080;19.924;2024-02-14T02:53:49;99593.19;;;2.21;80.62
56950;BME280;74437;50.080;19.924;2024-02-14T02:56:17;99601.06;;;2.23;81.18
56950;BME280;74437;50.080;19.924;2024-02-14T02:58:42;99599.41;;;2.22;80.48
56950;BME280;74437;50.080;19.924;2024-02-14T03:01:09;99607.22;;;2.23;81.25
56950;BME280;74437;50.080;19.924;2024-02-14T03:03:35;99600.16;;;2.07;81.17
56950;BME280;74437;50.080;19.924;2024-02-14T03:06:03;99598.19;;;2.25;80.55
56950;BME280;74437;50.080;19.924;2024-02-14T03:08:28;99608.91;;;2.25;80.60
56950;BME280;74437;50.080;19.924;2024-02-14T03:10:56;99611.56;;;2.25;80.94
56950;BME280;74437;50.080;19.924;2024-02-14T03:13:24;99609.56;;;2.27;80.93
56950;BME280;74437;50.080;19.924;2024-02-14T03:15:50;99610.38;;;2.27;80.52
56950;BME280;74437;50.080;19.924;2024-02-14T03:18:15;99612.03;;;2.28;80.78
56950;BME280;74437;50.080;19.924;2024-02-14T03:20:40;99614.72;;;2.28;80.67
56950;BME280;74437;50.080;19.924;2024-02-14T03:23:06;99614.72;;;2.28;80.98
56950;BME280;74437;50.080;19.924;2024-02-14T03:25:31;99617.38;;;2.28;80.49
56950;BME280;74437;50.080;19.924;2024-02-14T03:27:57;99619.91;;;2.30;81.10
56950;BME280;74437;50.080;19.924;2024-02-14T03:30:23;99612.69;;;2.30;80.72
56950;BME280;74437;50.080;19.924;2024-02-14T03:32:50;99618.88;;;2.31;80.88
56950;BME280;74437;50.080;19.924;2024-02-14T03:35:15;99620.34;;;2.33;80.19
56950;BME280;74437;50.080;19.924;2024-02-14T03:37:42;99619.53;;;2.33;80.75
56950;BME280;74437;50.080;19.924;2024-02-14T03:40:09;99619.69;;;2.31;80.50
56950;BME280;74437;50.080;19.924;2024-02-14T03:42:35;99625.06;;;2.31;80.17
56950;BME280;74437;50.080;19.924;2024-02-14T03:45:00;99596.13;;;2.12;79.72
56950;BME280;74437;50.080;19.924;2024-02-14T03:47:33;99626.72;;;2.32;80.03
56950;BME280;74437;50.080;19.924;2024-02-14T03:49:59;99628.38;;;2.33;81.09
56950;BME280;74437;50.080;19.924;2024-02-14T03:52:25;99584.13;;;2.07;80.76
56950;BME280;74437;50.080;19.924;2024-02-14T03:54:50;99623.22;;;2.32;80.98
56950;BME280;74437;50.080;19.924;2024-02-14T03:57:16;99627.09;;;2.29;80.74
56950;BME280;74437;50.080;19.924;2024-02-14T03:59:43;99559.03;;;1.85;81.09
56950;BME280;74437;50.080;19.924;2024-02-14T04:02:08;99622.34;;;2.16;81.87
56950;BME280;74437;50.080;19.924;2024-02-14T04:04:36;99631.66;;;2.20;82.10
56950;BME280;74437;50.080;19.924;2024-02-14T04:07:02;99624.19;;;2.16;81.30
56950;BME280;74437;50.080;19.924;2024-02-14T04:09:28;99631.03;;;2.18;82.22
56950;BME280;74437;50.080;19.924;2024-02-14T04:11:53;99617.53;;;2.12;82.18
56950;BME280;74437;50.080;19.924;2024-02-14T04:14:18;99639.41;;;2.15;82.26
56950;BME280;74437;50.080;19.924;2024-02-14T04:16:44;99641.63;;;2.12;82.80
56950;BME280;74437;50.080;19.924;2024-02-14T04:19:09;99627.09;;;2.06;82.29
56950;BME280;74437;50.080;19.924;2024-02-14T04:21:36;99640.31;;;2.07;82.39
56950;BME280;74437;50.080;19.924;2024-02-14T04:24:03;99644.63;;;2.08;82.56
56950;BME280;74437;50.080;19.924;2024-02-14T04:26:28;99642.38;;;1.97;82.58
56950;BME280;74437;50.080;19.924;2024-02-14T04:28:54;99650.81;;;2.09;82.68
56950;BME280;74437;50.080;19.924;2024-02-14T04:31:19;99651.66;;;2.10;83.13
56950;BME280;74437;50.080;19.924;2024-02-14T04:33:44;99648.31;;;2.07;82.41
56950;BME280;74437;50.080;19.924;2024-02-14T04:36:14;99651.16;;;2.06;82.59
56950;BME280;74437;50.080;19.924;2024-02-14T04:38:40;99648.88;;;2.03;83.30
56950;BME280;74437;50.080;19.924;2024-02-14T04:41:06;99648.03;;;2.02;82.51
56950;BME280;74437;50.080;19.924;2024-02-14T04:43:31;99654.75;;;1.98;82.66
56950;BME280;74437;50.080;19.924;2024-02-14T04:45:56;99638.94;;;1.88;83.36
56950;BME280;74437;50.080;19.924;2024-02-14T04:48:22;99613.63;;;1.68;83.81
56950;BME280;74437;50.080;19.924;2024-02-14T04:50:47;99647.66;;;1.82;83.79
56950;BME280;74437;50.080;19.924;2024-02-14T04:53:12;99649.00;;;1.78;83.86
56950;BME280;74437;50.080;19.924;2024-02-14T04:55:38;99653.22;;;1.72;84.07
56950;BME280;74437;50.080;19.924;2024-02-14T04:58:03;99649.59;;;1.65;84.52
56950;BME280;74437;50.080;19.924;2024-02-14T05:00:30;99658.28;;;1.59;84.47
56950;BME280;74437;50.080;19.924;2024-02-14T05:02:55;99653.66;;;1.53;84.60
56950;BME280;74437;50.080;19.924;2024-02-14T05:05:22;99650.84;;;1.46;85.21
56950;BME280;74437;50.080;19.924;2024-02-14T05:07:47;99653.19;;;1.41;85.11
56950;BME280;74437;50.080;19.924;2024-02-14T05:10:12;99656.41;;;1.36;85.72
56950;BME280;74437;50.080;19.924;2024-02-14T05:12:40;99654.06;;;1.33;86.13
56950;BME280;74437;50.080;19.924;2024-02-14T05:15:05;99629.75;;;1.11;85.98
56950;BME280;74437;50.080;19.924;2024-02-14T05:17:31;99668.78;;;1.29;85.71
56950;BME280;74437;50.080;19.924;2024-02-14T05:19:56;99658.78;;;1.23;86.74
56950;BME280;74437;50.080;19.924;2024-02-14T05:22:22;99665.13;;;1.22;86.34
56950;BME280;74437;50.080;19.924;2024-02-14T05:24:48;99653.31;;;1.16;86.75
56950;BME280;74437;50.080;19.924;2024-02-14T05:27:13;99589.81;;;0.70;86.49
56950;BME280;74437;50.080;19.924;2024-02-14T05:29:38;99668.00;;;1.20;86.68
56950;BME280;74437;50.080;19.924;2024-02-14T05:32:04;99664.00;;;1.16;86.46
56950;BME280;74437;50.080;19.924;2024-02-14T05:34:30;99669.66;;;1.13;87.09
56950;BME280;74437;50.080;19.924;2024-02-14T05:36:55;99655.47;;;1.04;86.68
56950;BME280;74437;50.080;19.924;2024-02-14T05:39:21;99661.00;;;1.11;86.77
56950;BME280;74437;50.080;19.924;2024-02-14T05:41:47;99646.19;;;0.92;87.24
56950;BME280;74437;50.080;19.924;2024-02-14T05:44:14;99679.84;;;1.09;87.62
56950;BME280;74437;50.080;19.924;2024-02-14T05:46:39;99671.03;;;1.00;86.90
56950;BME280;74437;50.080;19.924;2024-02-14T05:49:05;99673.50;;;1.02;87.45
56950;BME280;74437;50.080;19.924;2024-02-14T05:51:31;99673.69;;;1.00;87.57
56950;BME280;74437;50.080;19.924;2024-02-14T05:53:56;99616.38;;;0.63;87.32
56950;BME280;74437;50.080;19.924;2024-02-14T05:56:22;99641.72;;;0.76;87.41
56950;BME280;74437;50.080;19.924;2024-02-14T05:58:47;99682.91;;;0.98;87.08
56950;BME280;74437;50.080;19.924;2024-02-14T06:01:13;99679.25;;;0.91;86.30
56950;BME280;74437;50.080;19.924;2024-02-14T06:03:38;99685.25;;;0.84;86.79
56950;BME280;74437;50.080;19.924;2024-02-14T06:06:03;99671.09;;;0.67;87.25
56950;BME280;74437;50.080;19.924;2024-02-14T06:08:29;99697.25;;;0.80;87.22
56950;BME280;74437;50.080;19.924;2024-02-14T06:10:54;99690.75;;;0.83;87.68
56950;BME280;74437;50.080;19.924;2024-02-14T06:13:19;99599.41;;;0.31;87.47
56950;BME280;74437;50.080;19.924;2024-02-14T06:15:45;99692.41;;;0.92;87.94
56950;BME280;74437;50.080;19.924;2024-02-14T06:18:10;99690.25;;;0.96;87.95
56950;BME280;74437;50.080;19.924;2024-02-14T06:20:36;99689.06;;;0.98;87.70
56950;BME280;74437;50.080;19.924;2024-02-14T06:23:01;99670.91;;;0.85;87.37
56950;BME280;74437;50.080;19.924;2024-02-14T06:25:27;99689.06;;;0.98;87.46
56950;BME280;74437;50.080;19.924;2024-02-14T06:27:52;99694.06;;;0.93;87.04
56950;BME280;74437;50.080;19.924;2024-02-14T06:30:19;99682.91;;;0.98;87.16
56950;BME280;74437;50.080;19.924;2024-02-14T06:32:44;99598.06;;;0.35;86.58
56950;BME280;74437;50.080;19.924;2024-02-14T06:35:10;99688.91;;;0.92;86.67
56950;BME280;74437;50.080;19.924;2024-02-14T06:37:35;99684.25;;;0.85;86.58
56950;BME280;74437;50.080;19.924;2024-02-14T06:40:00;99706.41;;;1.02;86.47
56950;BME280;74437;50.080;19.924;2024-02-14T06:42:26;99700.41;;;1.09;86.62
56950;BME280;74437;50.080;19.924;2024-02-14T06:44:51;99700.19;;;1.18;86.21
56950;BME280;74437;50.080;19.924;2024-02-14T06:47:17;99707.34;;;1.34;85.51
56950;BME280;74437;50.080;19.924;2024-02-14T06:49:43;99669.00;;;1.11;85.40
56950;BME280;74437;50.080;19.924;2024-02-14T06:52:08;99632.25;;;1.53;83.72
56950;BME280;74437;50.080;19.924;2024-02-14T06:54:33;99691.72;;;3.03;79.84
56950;BME280;74437;50.080;19.924;2024-02-14T06:56:59;99702.47;;;3.99;76.21
56950;BME280;74437;50.080;19.924;2024-02-14T06:59:25;99685.69;;;4.56;73.20
56950;BME280;74437;50.080;19.924;2024-02-14T07:01:51;99704.81;;;5.66;70.51
56950;BME280;74437;50.080;19.924;2024-02-14T07:04:20;99698.66;;;6.35;66.86
56950;BME280;74437;50.080;19.924;2024-02-14T07:06:51;99700.34;;;6.96;64.80
56950;BME280;74437;50.080;19.924;2024-02-14T07:09:17;99682.06;;;7.19;63.09
56950;BME280;74437;50.080;19.924;2024-02-14T07:11:42;99693.78;;;7.65;62.18
56950;BME280;74437;50.080;19.924;2024-02-14T07:14:08;99695.84;;;7.69;61.47
56950;BME280;74437;50.080;19.924;2024-02-14T07:16:33;99707.13;;;8.05;60.71
56950;BME280;74437;50.080;19.924;2024-02-14T07:18:58;99716.22;;;8.56;58.92
56950;BME280;74437;50.080;19.924;2024-02-14T07:21:24;99707.47;;;8.86;57.91
56950;BME280;74437;50.080;19.924;2024-02-14T07:23:49;99712.88;;;9.12;57.16
56950;BME280;74437;50.080;19.924;2024-02-14T07:26:15;99686.66;;;9.68;55.27
56950;BME280;74437;50.080;19.924;2024-02-14T07:28:40;99710.53;;;10.08;54.42
56950;BME280;74437;50.080;19.924;2024-02-14T07:31:06;99643.66;;;10.09;53.03
56950;BME280;74437;50.080;19.924;2024-02-14T07:33:31;99690.63;;;10.76;52.90
56950;BME280;74437;50.080;19.924;2024-02-14T07:35:57;99705.53;;;11.97;50.79
56950;BME280;74437;50.080;19.924;2024-02-14T07:38:22;99700.31;;;12.08;48.78
56950;BME280;74437;50.080;19.924;2024-02-14T07:40:48;99699.00;;;11.69;49.31
56950;BME280;74437;50.080;19.924;2024-02-14T07:43:13;99696.31;;;11.57;49.34
56950;BME280;74437;50.080;19.924;2024-02-14T07:45:39;99700.88;;;11.69;48.55
56950;BME280;74437;50.080;19.924;2024-02-14T07:48:05;99692.78;;;11.86;48.91
56950;BME280;74437;50.080;19.924;2024-02-14T07:50:31;99702.34;;;12.29;48.33
56950;BME280;74437;50.080;19.924;2024-02-14T07:52:57;99696.56;;;12.89;46.48
56950;BME280;74437;50.080;19.924;2024-02-14T07:55:23;99700.78;;;13.14;45.98
56950;BME280;74437;50.080;19.924;2024-02-14T07:57:49;99703.22;;;13.72;45.37
56950;BME280;74437;50.080;19.924;2024-02-14T08:00:15;99705.31;;;14.09;44.81
56950;BME280;74437;50.080;19.924;2024-02-14T08:02:50;99703.88;;;14.01;44.54
56950;BME280;74437;50.080;19.924;2024-02-14T08:05:16;99702.88;;;14.35;44.00
56950;BME280;74437;50.080;19.924;2024-02-14T08:07:41;99696.78;;;14.27;43.78
56950;BME280;74437;50.080;19.924;2024-02-14T08:10:06;99602.78;;;14.40;43.24
56950;BME280;74437;50.080;19.924;2024-02-14T08:12:32;99688.03;;;15.18;41.91
56950;BME280;74437;50.080;19.924;2024-02-14T08:14:58;99689.13;;;15.70;41.19
56950;BME280;74437;50.080;19.924;2024-02-14T08:17:29;99670.34;;;15.31;40.97
56950;BME280;74437;50.080;19.924;2024-02-14T08:19:54;99681.59;;;15.88;39.82
56950;BME280;74437;50.080;19.924;2024-02-14T08:22:19;99689.41;;;17.31;37.69
56950;BME280;74437;50.080;19.924;2024-02-14T08:24:46;99680.00;;;17.58;37.63
56950;BME280;74437;50.080;19.924;2024-02-14T08:27:11;99683.94;;;18.02;36.37
56950;BME280;74437;50.080;19.924;2024-02-14T08:29:37;99679.53;;;18.85;34.16
56950;BME280;74437;50.080;19.924;2024-02-14T08:32:02;99637.09;;;17.82;35.45
56950;BME280;74437;50.080;19.924;2024-02-14T08:34:28;99679.88;;;17.89;34.94
56950;BME280;74437;50.080;19.924;2024-02-14T08:36:54;99690.28;;;18.82;35.36
56950;BME280;74437;50.080;19.924;2024-02-14T08:39:19;99681.19;;;18.52;34.26
56950;BME280;74437;50.080;19.924;2024-02-14T08:41:45;99670.84;;;18.38;34.47
56950;BME280;74437;50.080;19.924;2024-02-14T08:44:15;99686.75;;;18.41;34.50
56950;BME280;74437;50.080;19.924;2024-02-14T08:46:40;99687.56;;;17.86;35.01
56950;BME280;74437;50.080;19.924;2024-02-14T08:49:07;99653.91;;;17.65;35.65
56950;BME280;74437;50.080;19.924;2024-02-14T08:51:36;99667.91;;;18.24;34.86
56950;BME280;74437;50.080;19.924;2024-02-14T08:54:03;99691.72;;;18.34;34.39
56950;BME280;74437;50.080;19.924;2024-02-14T08:56:33;99700.16;;;18.03;34.63
56950;BME280;74437;50.080;19.924;2024-02-14T08:59:00;99691.06;;;18.03;34.46
56950;BME280;74437;50.080;19.924;2024-02-14T09:01:26;99656.13;;;18.19;34.45
56950;BME280;74437;50.080;19.924;2024-02-14T09:03:51;99671.94;;;17.87;34.33
56950;BME280;74437;50.080;19.924;2024-02-14T09:08:23;99682.84;;;17.11;35.54
56950;BME280;74437;50.080;19.924;2024-02-14T09:10:52;99677.28;;;17.42;35.87
56950;BME280;74437;50.080;19.924;2024-02-14T09:13:17;99674.66;;;17.92;35.04
56950;BME280;74437;50.080;19.924;2024-02-14T09:15:43;99671.06;;;18.02;33.87
56950;BME280;74437;50.080;19.924;2024-02-14T09:18:09;99678.03;;;18.29;32.90
56950;BME280;74437;50.080;19.924;2024-02-14T09:20:34;99649.78;;;18.93;32.74
56950;BME280;74437;50.080;19.924;2024-02-14T09:22:59;99614.81;;;19.03;30.84
56950;BME280;74437;50.080;19.924;2024-02-14T09:25:25;99666.78;;;19.29;31.56
56950;BME280;74437;50.080;19.924;2024-02-14T09:27:50;99663.03;;;19.93;31.61
56950;BME280;74437;50.080;19.924;2024-02-14T09:30:16;99660.44;;;19.77;28.95
56950;BME280;74437;50.080;19.924;2024-02-14T09:32:43;99662.19;;;19.19;31.23
56950;BME280;74437;50.080;19.924;2024-02-14T09:35:09;99643.97;;;18.70;30.20
56950;BME280;74437;50.080;19.924;2024-02-14T09:37:35;99662.56;;;18.78;29.94
56950;BME280;74437;50.080;19.924;2024-02-14T09:40:04;99671.66;;;17.83;29.78
56950;BME280;74437;50.080;19.924;2024-02-14T09:42:46;99666.31;;;17.47;29.25
56950;BME280;74437;50.080;19.924;2024-02-14T09:45:14;99674.63;;;16.70;30.71
56950;BME280;74437;50.080;19.924;2024-02-14T09:47:40;99666.69;;;16.68;31.39
56950;BME280;74437;50.080;19.924;2024-02-14T09:50:07;99646.44;;;17.00;31.49
56950;BME280;74437;50.080;19.924;2024-02-14T09:52:33;99642.75;;;17.41;30.26
56950;BME280;74437;50.080;19.924;2024-02-14T09:55:00;99657.47;;;17.71;29.95
56950;BME280;74437;50.080;19.924;2024-02-14T09:57:29;99671.22;;;17.55;30.24
56950;BME280;74437;50.080;19.924;2024-02-14T09:59:56;99666.00;;;18.20;29.94
56950;BME280;74437;50.080;19.924;2024-02-14T10:02:21;99669.13;;;18.03;30.50
56950;BME280;74437;50.080;19.924;2024-02-14T10:04:47;99667.00;;;17.89;29.68
56950;BME280;74437;50.080;19.924;2024-02-14T10:07:12;99664.03;;;18.30;29.75
56950;BME280;74437;50.080;19.924;2024-02-14T10:09:41;99641.25;;;18.30;27.98
56950;BME280;74437;50.080;19.924;2024-02-14T10:12:08;99662.88;;;17.81;28.88
56950;BME280;74437;50.080;19.924;2024-02-14T10:14:37;99658.28;;;18.27;29.86
56950;BME280;74437;50.080;19.924;2024-02-14T10:17:03;99658.25;;;18.32;30.58
56950;BME280;74437;50.080;19.924;2024-02-14T10:19:29;99660.06;;;18.07;29.61
56950;BME280;74437;50.080;19.924;2024-02-14T10:21:59;99658.53;;;17.75;31.00
56950;BME280;74437;50.080;19.924;2024-02-14T10:24:27;99655.97;;;17.29;30.46
56950;BME280;74437;50.080;19.924;2024-02-14T10:26:53;99643.94;;;17.19;31.28
56950;BME280;74437;50.080;19.924;2024-02-14T10:29:19;99645.56;;;17.25;30.95
56950;BME280;74437;50.080;19.924;2024-02-14T10:31:45;99634.38;;;16.49;30.74
56950;BME280;74437;50.080;19.924;2024-02-14T10:34:11;99651.00;;;14.95;33.22
56950;BME280;74437;50.080;19.924;2024-02-14T10:36:37;99644.56;;;14.73;33.84
56950;BME280;74437;50.080;19.924;2024-02-14T10:39:06;99605.75;;;15.68;33.21
56950;BME280;74437;50.080;19.924;2024-02-14T10:41:33;99635.44;;;16.95;32.26
56950;BME280;74437;50.080;19.924;2024-02-14T10:44:03;99634.84;;;17.34;31.41
56950;BME280;74437;50.080;19.924;2024-02-14T10:46:32;99632.50;;;17.73;31.01
56950;BME280;74437;50.080;19.924;2024-02-14T10:49:05;99639.78;;;17.98;30.68
56950;BME280;74437;50.080;19.924;2024-02-14T10:51:32;99640.88;;;17.31;30.73
56950;BME280;74437;50.080;19.924;2024-02-14T10:54:04;99634.81;;;15.95;31.82
56950;BME280;74437;50.080;19.924;2024-02-14T10:56:31;99634.28;;;14.86;33.60
56950;BME280;74437;50.080;19.924;2024-02-14T10:58:57;99631.59;;;14.91;34.42
56950;BME280;74437;50.080;19.924;2024-02-14T11:01:25;99589.41;;;15.14;34.40
56950;BME280;74437;50.080;19.924;2024-02-14T11:03:53;99632.34;;;15.24;34.04
56950;BME280;74437;50.080;19.924;2024-02-14T11:06:18;99628.16;;;15.11;33.65
56950;BME280;74437;50.080;19.924;2024-02-14T11:09:03;99627.66;;;15.14;34.43
56950;BME280;74437;50.080;19.924;2024-02-14T11:11:33;99611.78;;;15.11;34.22
56950;BME280;74437;50.080;19.924;2024-02-14T11:13:59;99623.09;;;14.22;35.60
56950;BME280;74437;50.080;19.924;2024-02-14T11:16:25;99614.34;;;13.26;36.87
56950;BME280;74437;50.080;19.924;2024-02-14T11:19:14;99612.22;;;12.55;38.26
56950;BME280;74437;50.080;19.924;2024-02-14T11:21:43;99606.59;;;11.40;39.42
56950;BME280;74437;50.080;19.924;2024-02-14T11:24:11;99599.59;;;10.80;41.33
56950;BME280;74437;50.080;19.924;2024-02-14T11:26:46;99599.34;;;10.57;41.86
56950;BME280;74437;50.080;19.924;2024-02-14T11:29:15;99586.16;;;10.19;42.35
56950;BME280;74437;50.080;19.924;2024-02-14T11:31:44;99599.09;;;10.05;42.45
56950;BME280;74437;50.080;19.924;2024-02-14T11:34:16;99581.50;;;9.65;42.29
56950;BME280;74437;50.080;19.924;2024-02-14T11:36:43;99599.00;;;9.50;43.67
56950;BME280;74437;50.080;19.924;2024-02-14T11:39:09;99559.84;;;9.16;43.97
56950;BME280;74437;50.080;19.924;2024-02-14T11:41:37;99599.84;;;9.14;43.86
56950;BME280;74437;50.080;19.924;2024-02-14T11:44:06;99588.94;;;9.02;44.89
56950;BME280;74437;50.080;19.924;2024-02-14T11:46:36;99589.53;;;9.22;44.97
56950;BME280;74437;50.080;19.924;2024-02-14T11:49:05;99584.22;;;9.34;44.37
56950;BME280;74437;50.080;19.924;2024-02-14T11:51:32;99581.09;;;9.31;44.85
56950;BME280;74437;50.080;19.924;2024-02-14T11:53:58;99524.31;;;9.12;44.46
56950;BME280;74437;50.080;19.924;2024-02-14T11:56:31;99582.75;;;9.50;45.53
56950;BME280;74437;50.080;19.924;2024-02-14T11:59:00;99583.50;;;9.58;45.19
56950;BME280;74437;50.080;19.924;2024-02-14T12:01:28;99577.56;;;9.49;44.68
56950;BME280;74437;50.080;19.924;2024-02-14T12:03:54;99590.09;;;9.62;44.86
56950;BME280;74437;50.080;19.924;2024-02-14T12:06:19;99584.47;;;9.63;45.39
56950;BME280;74437;50.080;19.924;2024-02-14T12:08:45;99584.22;;;9.65;45.15
56950;BME280;74437;50.080;19.924;2024-02-14T12:11:10;99578.47;;;9.43;45.01
56950;BME280;74437;50.080;19.924;2024-02-14T12:13:36;99582.22;;;9.42;45.75
56950;BME280;74437;50.080;19.924;2024-02-14T12:16:03;99590.13;;;9.43;45.20
56950;BME280;74437;50.080;19.924;2024-02-14T12:18:28;99568.41;;;9.13;44.02
56950;BME280;74437;50.080;19.924;2024-02-14T12:21:03;99574.78;;;9.18;44.29
56950;BME280;74437;50.080;19.924;2024-02-14T12:23:36;99551.97;;;8.96;44.34
56950;BME280;74437;50.080;19.924;2024-02-14T12:26:03;99553.31;;;9.05;44.43
56950;BME280;74437;50.080;19.924;2024-02-14T12:28:30;99521.75;;;8.99;43.39
56950;BME280;74437;50.080;19.924;2024-02-14T12:30:57;99552.34;;;9.18;43.05
56950;BME280;74437;50.080;19.924;2024-02-14T12:33:24;99573.88;;;9.24;43.22
56950;BME280;74437;50.080;19.924;2024-02-14T12:35:51;99560.09;;;9.14;43.04
56950;BME280;74437;50.080;19.924;2024-02-14T12:38:18;99559.50;;;9.12;44.79
56950;BME280;74437;50.080;19.924;2024-02-14T12:40:43;99550.97;;;9.08;45.27
56950;BME280;74437;50.080;19.924;2024-02-14T12:43:10;99563.59;;;9.15;45.30
56950;BME280;74437;50.080;19.924;2024-02-14T12:45:36;99562.25;;;9.24;45.40
56950;BME280;74437;50.080;19.924;2024-02-14T12:48:02;99460.91;;;8.52;45.12
56950;BME280;74437;50.080;19.924;2024-02-14T12:50:28;99554.19;;;9.36;44.16
56950;BME280;74437;50.080;19.924;2024-02-14T12:52:53;99558.56;;;9.37;44.08
56950;BME280;74437;50.080;19.924;2024-02-14T12:55:18;99557.25;;;9.39;44.41